Arden, New York
Current Conditions -  °F | °C
As of 8:45 AM on Sunday 21 Dec 2014 (Local Time) from KSWF Reporting Station
Haze Haze  
Wind Chill: 23°   Ceiling: 900
Heat Index: 28°   Visibility: 6mi
Dew Point: 27°   Wind: 5mph
Humidity: 93%   Direction: NA
Pressure: 30.3"   Gusts: NA
Location:  41.27°N, 74.15°W
Report Text: KSWF 211345Z VRB04KT 6SM BR OVC009 M02/M03 A3030
Loading
Personal Weather Stations






























Interactive Weather Map New forecast layout! Learn more

10-Day Weather Forecast

Advertisements
Track Severe Weather on mobile